Wetterdaten: Woche 21.03.11 - 27.03.11 (KW12)
Datum Zeit Temp. Innen Temp. Aussen UV X Diff Temp. Feuchte Inne Feuchte Auss Sonnenschein Luftdruck Regen ab 0,1 Wind Sonnenschein T Regendauer Windben
21.03.2011 00:00 14,4 C 1,1 C 0,0 UV-I 0,0 C 43 % 78 % 0 % 1034,3 hPa 0,0 l/m 0,0 km/h (0 Bft) 0,00 h 0,00 h 0,0 km/h (0 Bft)
21.03.2011 01:00 14,2 C 0,5 C 0,0 UV-I 0,0 C 44 % 80 % 0 % 1034,5 hPa 0,0 l/m 0,0 km/h (0 Bft) 0,00 h 0,00 h 0,0 km/h (0 Bft)
21.03.2011 02:00 13,9 C -0,0 C 0,0 UV-I 0,0 C 44 % 82 % 0 % 1034,3 hPa 0,0 l/m 0,0 km/h (0 Bft) 0,00 h 0,00 h 0,0 km/h (0 Bft)
21.03.2011 03:00 13,7 C -0,4 C 0,0 UV-I 0,0 C 44 % 84 % 0 % 1033,9 hPa 0,0 l/m 0,0 km/h (0 Bft) 0,00 h 0,00 h 0,0 km/h (0 Bft)
21.03.2011 04:00 13,6 C -0,9 C 0,0 UV-I 0,0 C 44 % 86 % 0 % 1034,1 hPa 0,0 l/m 0,0 km/h (0 Bft) 0,00 h 0,00 h 0,0 km/h (0 Bft)
21.03.2011 05:00 13,3 C -1,0 C 0,0 UV-I 0,0 C 44 % 87 % 0 % 1034,4 hPa 0,0 l/m 0,4 km/h (0 Bft) 0,00 h 0,00 h 0,7 km/h (0 Bft)
21.03.2011 06:00 13,2 C -0,4 C 0,0 UV-I 0,0 C 45 % 87 % 0 % 1034,8 hPa 0,0 l/m 1,4 km/h (1 Bft) 0,00 h 0,00 h 2,4 km/h (1 Bft)
21.03.2011 07:00 13,2 C 0,2 C 0,0 UV-I 0,7 C 45 % 87 % 18 % 1035,4 hPa 0,0 l/m 1,2 km/h (1 Bft) 0,20 h 0,00 h 2,1 km/h (1 Bft)
21.03.2011 08:00 13,2 C 2,5 C 0,0 UV-I 6,3 C 46 % 85 % 100 % 1036,0 hPa 0,0 l/m 2,0 km/h (1 Bft) 1,00 h 0,00 h 2,8 km/h (1 Bft)
21.03.2011 09:00 13,4 C 5,7 C 0,0 UV-I 7,7 C 46 % 78 % 100 % 1036,5 hPa 0,0 l/m 2,8 km/h (1 Bft) 1,00 h 0,00 h 4,2 km/h (1 Bft)
21.03.2011 10:00 13,7 C 9,0 C 0,0 UV-I 7,7 C 45 % 64 % 100 % 1036,3 hPa 0,0 l/m 3,9 km/h (1 Bft) 1,00 h 0,00 h 4,9 km/h (1 Bft)
21.03.2011 11:00 14,2 C 11,3 C 0,3 UV-I 7,8 C 45 % 52 % 100 % 1036,5 hPa 0,0 l/m 3,5 km/h (1 Bft) 1,00 h 0,00 h 3,3 km/h (1 Bft)
21.03.2011 12:00 15,1 C 13,6 C 3,2 UV-I 7,3 C 44 % 43 % 100 % 1036,9 hPa 0,0 l/m 3,8 km/h (1 Bft) 1,00 h 0,00 h 4,7 km/h (1 Bft)
21.03.2011 13:00 16,7 C 14,8 C 5,1 UV-I 7,4 C 41 % 37 % 100 % 1038,8 hPa 0,0 l/m 3,7 km/h (1 Bft) 1,00 h 0,00 h 4,5 km/h (1 Bft)
21.03.2011 14:00 18,7 C 15,6 C 5,4 UV-I 7,1 C 37 % 34 % 100 % 1038,7 hPa 0,0 l/m 4,2 km/h (1 Bft) 1,00 h 0,00 h 5,1 km/h (1 Bft)
21.03.2011 15:00 20,2 C 15,6 C 2,3 UV-I 6,3 C 34 % 34 % 100 % 1039,0 hPa 0,0 l/m 4,5 km/h (1 Bft) 1,00 h 0,00 h 4,8 km/h (1 Bft)
21.03.2011 16:00 20,1 C 15,1 C 0,0 UV-I 3,4 C 34 % 35 % 92 % 1037,7 hPa 0,0 l/m 3,3 km/h (1 Bft) 0,93 h 0,00 h 4,7 km/h (1 Bft)
21.03.2011 17:00 19,2 C 14,2 C 0,0 UV-I 1,2 C 36 % 37 % 33 % 1036,7 hPa 0,0 l/m 4,8 km/h (1 Bft) 0,07 h 0,00 h 5,2 km/h (1 Bft)
21.03.2011 18:00 18,4 C 12,7 C 0,0 UV-I 0,0 C 38 % 42 % 0 % 1036,0 hPa 0,0 l/m 1,2 km/h (1 Bft) 0,00 h 0,00 h 0,8 km/h (0 Bft)
21.03.2011 19:00 17,4 C 9,8 C 0,0 UV-I 0,0 C 39 % 53 % 0 % 1035,8 hPa 0,0 l/m 0,0 km/h (0 Bft) 0,00 h 0,00 h 0,0 km/h (0 Bft)
21.03.2011 20:00 16,6 C 7,0 C 0,0 UV-I 0,0 C 41 % 61 % 0 % 1035,6 hPa 0,0 l/m 0,0 km/h (0 Bft) 0,00 h 0,00 h 0,0 km/h (0 Bft)
21.03.2011 21:00 16,0 C 5,1 C 0,0 UV-I 0,0 C 42 % 68 % 0 % 1035,7 hPa 0,0 l/m 0,0 km/h (0 Bft) 0,00 h 0,00 h 0,0 km/h (0 Bft)
21.03.2011 22:00 15,5 C 3,7 C 0,0 UV-I 0,0 C 43 % 74 % 0 % 1035,9 hPa 0,0 l/m 0,0 km/h (0 Bft) 0,00 h 0,00 h 0,0 km/h (0 Bft)
21.03.2011 23:00 15,1 C 3,0 C 0,0 UV-I 0,0 C 44 % 78 % 0 % 1035,8 hPa 0,0 l/m 0,0 km/h (0 Bft) 0,00 h 0,00 h 0,0 km/h (0 Bft)
22.03.2011 00:00 14,8 C 2,5 C 0,0 UV-I 0,0 C 45 % 81 % 0 % 1036,0 hPa 0,0 l/m 0,0 km/h (0 Bft) 0,00 h 0,00 h 0,0 km/h (0 Bft)
22.03.2011 01:00 14,5 C 1,9 C 0,0 UV-I 0,0 C 45 % 83 % 0 % 1035,9 hPa 0,0 l/m 0,0 km/h (0 Bft) 0,00 h 0,00 h 0,0 km/h (0 Bft)
22.03.2011 02:00 14,3 C 1,3 C 0,0 UV-I 0,0 C 45 % 84 % 0 % 1035,9 hPa 0,0 l/m 0,0 km/h (0 Bft) 0,00 h 0,00 h 0,0 km/h (0 Bft)
22.03.2011 03:00 14,1 C 1,2 C 0,0 UV-I 0,0 C 45 % 85 % 0 % 1036,0 hPa 0,0 l/m 0,2 km/h (0 Bft) 0,00 h 0,00 h 0,1 km/h (0 Bft)
22.03.2011 04:00 13,9 C 0,8 C 0,0 UV-I 0,0 C 45 % 86 % 0 % 1036,1 hPa 0,0 l/m 0,0 km/h (0 Bft) 0,00 h 0,00 h 0,0 km/h (0 Bft)
22.03.2011 05:00 13,7 C 0,2 C 0,0 UV-I 0,0 C 45 % 87 % 0 % 1035,9 hPa 0,0 l/m 0,0 km/h (0 Bft) 0,00 h 0,00 h 0,0 km/h (0 Bft)
22.03.2011 06:00 13,6 C -0,2 C 0,0 UV-I 0,0 C 46 % 88 % 0 % 1036,2 hPa 0,0 l/m 0,0 km/h (0 Bft) 0,00 h 0,00 h 0,0 km/h (0 Bft)
22.03.2011 07:00 13,4 C 0,2 C 0,0 UV-I 0,7 C 46 % 89 % 20 % 1036,5 hPa 0,0 l/m 0,1 km/h (0 Bft) 0,20 h 0,00 h 0,4 km/h (0 Bft)
22.03.2011 08:00 13,5 C 3,1 C 0,0 UV-I 6,0 C 46 % 88 % 100 % 1037,3 hPa 0,0 l/m 0,5 km/h (0 Bft) 1,00 h 0,00 h 0,2 km/h (0 Bft)
22.03.2011 09:00 13,7 C 6,7 C 0,0 UV-I 7,8 C 47 % 81 % 100 % 1037,4 hPa 0,0 l/m 1,5 km/h (1 Bft) 1,00 h 0,00 h 2,6 km/h (1 Bft)
22.03.2011 10:00 14,1 C 9,8 C 0,0 UV-I 8,4 C 47 % 67 % 100 % 1037,6 hPa 0,0 l/m 1,3 km/h (1 Bft) 1,00 h 0,00 h 1,0 km/h (0 Bft)
22.03.2011 11:00 14,5 C 12,8 C 0,3 UV-I 8,8 C 46 % 52 % 100 % 1038,5 hPa 0,0 l/m 2,9 km/h (1 Bft) 1,00 h 0,00 h 3,8 km/h (1 Bft)
22.03.2011 12:00 15,5 C 14,7 C 3,4 UV-I 7,8 C 45 % 41 % 100 % 1038,9 hPa 0,0 l/m 6,2 km/h (2 Bft) 1,00 h 0,00 h 8,1 km/h (2 Bft)
22.03.2011 13:00 17,1 C 15,6 C 4,9 UV-I 6,8 C 42 % 39 % 100 % 1041,1 hPa 0,0 l/m 6,9 km/h (2 Bft) 1,00 h 0,00 h 6,7 km/h (2 Bft)
22.03.2011 14:00 18,9 C 16,4 C 4,7 UV-I 6,5 C 38 % 38 % 100 % 1040,8 hPa 0,0 l/m 5,7 km/h (1 Bft) 1,00 h 0,00 h 6,3 km/h (2 Bft)
22.03.2011 15:00 20,2 C 16,7 C 1,7 UV-I 5,4 C 36 % 41 % 100 % 1040,9 hPa 0,0 l/m 6,7 km/h (2 Bft) 1,00 h 0,00 h 7,5 km/h (2 Bft)
22.03.2011 16:00 20,6 C 16,5 C 0,1 UV-I 3,7 C 36 % 44 % 93 % 1040,0 hPa 0,0 l/m 9,6 km/h (2 Bft) 1,00 h 0,00 h 9,9 km/h (2 Bft)
22.03.2011 17:00 19,8 C 15,5 C 0,0 UV-I 1,6 C 37 % 52 % 45 % 1039,1 hPa 0,0 l/m 10,5 km/h (2 Bft) 0,43 h 0,00 h 10,1 km/h (2 Bft)
22.03.2011 18:00 18,9 C 14,0 C 0,0 UV-I 0,0 C 39 % 57 % 1 % 1038,6 hPa 0,0 l/m 5,0 km/h (1 Bft) 0,00 h 0,00 h 4,2 km/h (1 Bft)
22.03.2011 19:00 18,0 C 11,7 C 0,0 UV-I 0,0 C 41 % 63 % 0 % 1038,2 hPa 0,0 l/m 0,0 km/h (0 Bft) 0,00 h 0,00 h 0,0 km/h (0 Bft)
22.03.2011 20:00 17,2 C 9,2 C 0,0 UV-I 0,0 C 43 % 71 % 0 % 1038,8 hPa 0,0 l/m 0,0 km/h (0 Bft) 0,00 h 0,00 h 0,0 km/h (0 Bft)
22.03.2011 21:00 16,6 C 7,8 C 0,0 UV-I 0,0 C 45 % 77 % 0 % 1039,0 hPa 0,0 l/m 0,0 km/h (0 Bft) 0,00 h 0,00 h 0,0 km/h (0 Bft)
22.03.2011 22:00 16,2 C 6,8 C 0,0 UV-I 0,0 C 46 % 81 % 0 % 1039,1 hPa 0,0 l/m 0,0 km/h (0 Bft) 0,00 h 0,00 h 0,0 km/h (0 Bft)
22.03.2011 23:00 15,9 C 6,0 C 0,0 UV-I 0,0 C 47 % 83 % 0 % 1039,4 hPa 0,0 l/m 0,0 km/h (0 Bft) 0,00 h 0,00 h 0,0 km/h (0 Bft)
23.03.2011 00:00 15,6 C 5,6 C 0,0 UV-I 0,0 C 48 % 85 % 0 % 1039,6 hPa 0,0 l/m 0,0 km/h (0 Bft) 0,00 h 0,00 h 0,0 km/h (0 Bft)
23.03.2011 01:00 15,4 C 5,1 C 0,0 UV-I 0,0 C 48 % 86 % 0 % 1039,7 hPa 0,0 l/m 0,0 km/h (0 Bft) 0,00 h 0,00 h 0,0 km/h (0 Bft)
23.03.2011 02:00 15,1 C 4,6 C 0,0 UV-I 0,0 C 49 % 87 % 0 % 1039,5 hPa 0,0 l/m 0,0 km/h (0 Bft) 0,00 h 0,00 h 0,0 km/h (0 Bft)
23.03.2011 03:00 14,9 C 4,1 C 0,0 UV-I 0,0 C 49 % 88 % 0 % 1039,6 hPa 0,0 l/m 0,2 km/h (0 Bft) 0,00 h 0,00 h 0,1 km/h (0 Bft)
23.03.2011 04:00 14,8 C 3,5 C 0,0 UV-I 0,0 C 49 % 89 % 0 % 1039,6 hPa 0,0 l/m 0,0 km/h (0 Bft) 0,00 h 0,00 h 0,0 km/h (0 Bft)
23.03.2011 05:00 14,6 C 3,1 C 0,0 UV-I 0,0 C 49 % 89 % 0 % 1039,5 hPa 0,0 l/m 0,0 km/h (0 Bft) 0,00 h 0,00 h 0,0 km/h (0 Bft)
23.03.2011 06:00 14,4 C 3,0 C 0,0 UV-I 0,0 C 49 % 90 % 0 % 1040,1 hPa 0,0 l/m 0,6 km/h (0 Bft) 0,00 h 0,00 h 0,9 km/h (0 Bft)
23.03.2011 07:00 14,3 C 3,2 C 0,0 UV-I 1,1 C 50 % 91 % 26 % 1040,7 hPa 0,0 l/m 0,0 km/h (0 Bft) 0,27 h 0,00 h 0,2 km/h (0 Bft)
23.03.2011 08:00 14,3 C 5,9 C 0,0 UV-I 6,9 C 51 % 92 % 100 % 1041,1 hPa 0,0 l/m 1,8 km/h (1 Bft) 1,00 h 0,00 h 2,6 km/h (1 Bft)
23.03.2011 09:00 14,6 C 9,6 C 0,0 UV-I 8,4 C 52 % 88 % 100 % 1041,2 hPa 0,0 l/m 1,9 km/h (1 Bft) 1,00 h 0,00 h 2,7 km/h (1 Bft)
23.03.2011 10:00 14,9 C 12,5 C 0,2 UV-I 8,9 C 52 % 75 % 100 % 1041,2 hPa 0,0 l/m 2,3 km/h (1 Bft) 1,00 h 0,00 h 3,9 km/h (1 Bft)
23.03.2011 11:00 15,4 C 14,3 C 0,6 UV-I 8,1 C 51 % 63 % 100 % 1041,2 hPa 0,0 l/m 4,5 km/h (1 Bft) 1,00 h 0,00 h 6,1 km/h (2 Bft)
23.03.2011 12:00 16,3 C 15,4 C 4,1 UV-I 7,1 C 50 % 59 % 100 % 1041,6 hPa 0,0 l/m 7,1 km/h (2 Bft) 1,00 h 0,00 h 8,1 km/h (2 Bft)
23.03.2011 13:00 17,9 C 16,3 C 5,2 UV-I 6,5 C 47 % 58 % 100 % 1043,3 hPa 0,0 l/m 7,8 km/h (2 Bft) 1,00 h 0,00 h 8,2 km/h (2 Bft)
23.03.2011 14:00 19,6 C 16,6 C 4,3 UV-I 5,3 C 43 % 58 % 100 % 1043,0 hPa 0,0 l/m 10,7 km/h (2 Bft) 1,00 h 0,00 h 13,1 km/h (3 Bft)
23.03.2011 15:00 21,0 C 17,0 C 1,8 UV-I 4,9 C 40 % 58 % 100 % 1042,7 hPa 0,0 l/m 9,8 km/h (2 Bft) 1,00 h 0,00 h 11,8 km/h (2 Bft)
23.03.2011 16:00 21,4 C 16,9 C 0,1 UV-I 3,4 C 40 % 60 % 94 % 1042,0 hPa 0,0 l/m 12,0 km/h (2 Bft) 1,00 h 0,00 h 11,5 km/h (2 Bft)
23.03.2011 17:00 20,7 C 16,3 C 0,0 UV-I 2,0 C 42 % 60 % 56 % 1040,7 hPa 0,0 l/m 11,8 km/h (2 Bft) 0,77 h 0,00 h 13,7 km/h (3 Bft)
23.03.2011 18:00 19,8 C 14,7 C 0,0 UV-I 0,2 C 43 % 62 % 5 % 1039,8 hPa 0,0 l/m 8,7 km/h (2 Bft) 0,00 h 0,00 h 9,4 km/h (2 Bft)
23.03.2011 19:00 18,9 C 12,8 C 0,0 UV-I 0,0 C 44 % 68 % 0 % 1039,6 hPa 0,0 l/m 5,1 km/h (1 Bft) 0,00 h 0,00 h 5,1 km/h (1 Bft)
23.03.2011 20:00 18,1 C 11,0 C 0,0 UV-I 0,0 C 46 % 72 % 0 % 1039,5 hPa 0,0 l/m 0,3 km/h (0 Bft) 0,00 h 0,00 h 1,2 km/h (1 Bft)
23.03.2011 21:00 17,4 C 9,2 C 0,0 UV-I 0,0 C 48 % 76 % 0 % 1039,3 hPa 0,0 l/m 0,1 km/h (0 Bft) 0,00 h 0,00 h 0,7 km/h (0 Bft)
23.03.2011 22:00 16,9 C 8,0 C 0,0 UV-I 0,0 C 49 % 78 % 0 % 1039,4 hPa 0,0 l/m 0,0 km/h (0 Bft) 0,00 h 0,00 h 0,0 km/h (0 Bft)
23.03.2011 23:00 16,5 C 6,9 C 0,0 UV-I 0,0 C 48 % 81 % 0 % 1039,2 hPa 0,0 l/m 0,0 km/h (0 Bft) 0,00 h 0,00 h 0,0 km/h (0 Bft)
24.03.2011 00:00 16,1 C 5,7 C 0,0 UV-I 0,0 C 48 % 83 % 0 % 1038,9 hPa 0,0 l/m 0,0 km/h (0 Bft) 0,00 h 0,00 h 0,0 km/h (0 Bft)
24.03.2011 01:00 15,8 C 4,8 C 0,0 UV-I 0,0 C 48 % 85 % 0 % 1038,4 hPa 0,0 l/m 0,0 km/h (0 Bft) 0,00 h 0,00 h 0,0 km/h (0 Bft)
24.03.2011 02:00 15,4 C 4,2 C 0,0 UV-I 0,0 C 48 % 87 % 0 % 1038,3 hPa 0,0 l/m 0,0 km/h (0 Bft) 0,00 h 0,00 h 0,0 km/h (0 Bft)
24.03.2011 03:00 15,2 C 3,7 C 0,0 UV-I 0,0 C 48 % 88 % 0 % 1037,9 hPa 0,0 l/m 0,0 km/h (0 Bft) 0,00 h 0,00 h 0,0 km/h (0 Bft)
24.03.2011 04:00 14,9 C 3,2 C 0,0 UV-I 0,0 C 48 % 89 % 0 % 1037,5 hPa 0,0 l/m 0,0 km/h (0 Bft) 0,00 h 0,00 h 0,0 km/h (0 Bft)
24.03.2011 05:00 14,8 C 2,7 C 0,0 UV-I 0,0 C 48 % 89 % 0 % 1037,4 hPa 0,0 l/m 0,0 km/h (0 Bft) 0,00 h 0,00 h 0,0 km/h (0 Bft)
24.03.2011 06:00 14,5 C 2,3 C 0,0 UV-I 0,0 C 48 % 90 % 0 % 1037,5 hPa 0,0 l/m 0,0 km/h (0 Bft) 0,00 h 0,00 h 0,0 km/h (0 Bft)
24.03.2011 07:00 14,3 C 2,6 C 0,0 UV-I 0,7 C 49 % 91 % 18 % 1037,2 hPa 0,0 l/m 0,0 km/h (0 Bft) 0,17 h 0,00 h 0,0 km/h (0 Bft)
24.03.2011 08:00 14,3 C 4,6 C 0,0 UV-I 6,8 C 50 % 92 % 100 % 1037,4 hPa 0,0 l/m 0,2 km/h (0 Bft) 0,90 h 0,00 h 0,1 km/h (0 Bft)
24.03.2011 09:00 14,7 C 8,4 C 0,0 UV-I 8,4 C 52 % 86 % 100 % 1038,2 hPa 0,0 l/m 1,7 km/h (1 Bft) 1,00 h 0,00 h 3,8 km/h (1 Bft)
24.03.2011 10:00 15,1 C 12,0 C 0,4 UV-I 8,7 C 51 % 68 % 100 % 1038,0 hPa 0,0 l/m 3,8 km/h (1 Bft) 1,00 h 0,00 h 6,8 km/h (2 Bft)
24.03.2011 11:00 15,6 C 14,5 C 0,4 UV-I 7,5 C 50 % 59 % 100 % 1037,7 hPa 0,0 l/m 5,6 km/h (1 Bft) 1,00 h 0,00 h 9,9 km/h (2 Bft)
24.03.2011 12:00 16,6 C 16,3 C 3,9 UV-I 6,6 C 49 % 56 % 100 % 1037,4 hPa 0,0 l/m 6,3 km/h (2 Bft) 1,00 h 0,00 h 8,5 km/h (2 Bft)
24.03.2011 13:00 18,3 C 17,3 C 6,4 UV-I 6,9 C 46 % 53 % 100 % 1038,9 hPa 0,0 l/m 5,5 km/h (1 Bft) 1,00 h 0,00 h 8,8 km/h (2 Bft)
24.03.2011 14:00 20,1 C 18,0 C 6,0 UV-I 6,1 C 42 % 50 % 100 % 1038,0 hPa 0,0 l/m 5,9 km/h (2 Bft) 1,00 h 0,00 h 8,1 km/h (2 Bft)
24.03.2011 15:00 21,4 C 18,7 C 2,8 UV-I 5,0 C 39 % 47 % 100 % 1037,5 hPa 0,0 l/m 5,7 km/h (1 Bft) 1,00 h 0,00 h 8,4 km/h (2 Bft)
24.03.2011 16:00 21,7 C 18,5 C 0,5 UV-I 3,6 C 40 % 47 % 89 % 1036,0 hPa 0,0 l/m 4,0 km/h (1 Bft) 0,80 h 0,00 h 6,5 km/h (2 Bft)
24.03.2011 17:00 20,6 C 17,2 C 0,0 UV-I 0,6 C 42 % 51 % 18 % 1034,1 hPa 0,0 l/m 6,5 km/h (2 Bft) 0,00 h 0,00 h 7,9 km/h (2 Bft)
24.03.2011 18:00 19,9 C 15,4 C 0,0 UV-I 0,0 C 43 % 59 % 0 % 1032,7 hPa 0,0 l/m 6,2 km/h (2 Bft) 0,00 h 0,00 h 6,3 km/h (2 Bft)
24.03.2011 19:00 19,3 C 13,4 C 0,0 UV-I 0,0 C 44 % 66 % 0 % 1032,0 hPa 0,0 l/m 0,6 km/h (0 Bft) 0,00 h 0,00 h 0,6 km/h (0 Bft)
24.03.2011 20:00 18,6 C 11,3 C 0,0 UV-I 0,0 C 46 % 72 % 0 % 1031,6 hPa 0,0 l/m 0,0 km/h (0 Bft) 0,00 h 0,00 h 0,0 km/h (0 Bft)
24.03.2011 21:00 18,0 C 9,6 C 0,0 UV-I 0,0 C 48 % 77 % 0 % 1031,0 hPa 0,0 l/m 0,0 km/h (0 Bft) 0,00 h 0,00 h 0,0 km/h (0 Bft)
24.03.2011 22:00 17,6 C 8,5 C 0,0 UV-I 0,0 C 49 % 81 % 0 % 1030,2 hPa 0,0 l/m 0,0 km/h (0 Bft) 0,00 h 0,00 h 0,0 km/h (0 Bft)
24.03.2011 23:00 17,3 C 7,8 C 0,0 UV-I 0,0 C 50 % 84 % 0 % 1029,4 hPa 0,0 l/m 0,0 km/h (0 Bft) 0,00 h 0,00 h 0,0 km/h (0 Bft)
25.03.2011 00:00 17,1 C 6,9 C 0,0 UV-I 0,0 C 50 % 85 % 0 % 1028,5 hPa 0,0 l/m 0,0 km/h (0 Bft) 0,00 h 0,00 h 0,0 km/h (0 Bft)
25.03.2011 01:00 16,9 C 6,3 C 0,0 UV-I 0,0 C 50 % 87 % 0 % 1027,6 hPa 0,0 l/m 0,0 km/h (0 Bft) 0,00 h 0,00 h 0,0 km/h (0 Bft)
25.03.2011 02:00 16,7 C 5,8 C 0,0 UV-I 0,0 C 50 % 88 % 0 % 1026,7 hPa 0,0 l/m 0,0 km/h (0 Bft) 0,00 h 0,00 h 0,0 km/h (0 Bft)
25.03.2011 03:00 16,5 C 5,1 C 0,0 UV-I 0,0 C 50 % 89 % 0 % 1025,8 hPa 0,0 l/m 0,0 km/h (0 Bft) 0,00 h 0,00 h 0,0 km/h (0 Bft)
25.03.2011 04:00 16,3 C 4,6 C 0,0 UV-I 0,0 C 50 % 89 % 0 % 1024,9 hPa 0,0 l/m 0,0 km/h (0 Bft) 0,00 h 0,00 h 0,0 km/h (0 Bft)
25.03.2011 05:00 16,0 C 4,1 C 0,0 UV-I 0,0 C 50 % 90 % 0 % 1024,0 hPa 0,0 l/m 0,0 km/h (0 Bft) 0,00 h 0,00 h 0,0 km/h (0 Bft)
25.03.2011 06:00 15,8 C 3,7 C 0,0 UV-I 0,0 C 50 % 90 % 0 % 1023,7 hPa 0,0 l/m 0,0 km/h (0 Bft) 0,00 h 0,00 h 0,0 km/h (0 Bft)
25.03.2011 07:00 15,6 C 4,2 C 0,0 UV-I 0,2 C 50 % 92 % 5 % 1023,2 hPa 0,0 l/m 0,1 km/h (0 Bft) 0,30 h 0,00 h 0,0 km/h (0 Bft)
25.03.2011 08:00 15,8 C 6,1 C 0,0 UV-I 2,0 C 51 % 92 % 56 % 1022,6 hPa 0,0 l/m 0,3 km/h (0 Bft) 1,00 h 0,00 h 1,2 km/h (1 Bft)
25.03.2011 09:00 16,1 C 8,8 C 0,0 UV-I 3,6 C 51 % 89 % 95 % 1021,4 hPa 0,0 l/m 0,6 km/h (0 Bft) 1,00 h 0,00 h 2,0 km/h (1 Bft)
25.03.2011 10:00 16,4 C 11,2 C 0,0 UV-I 5,6 C 51 % 81 % 100 % 1021,1 hPa 0,0 l/m 1,4 km/h (1 Bft) 1,00 h 0,00 h 2,8 km/h (1 Bft)
25.03.2011 11:00 16,8 C 13,5 C 0,2 UV-I 7,2 C 51 % 72 % 100 % 1020,3 hPa 0,0 l/m 3,7 km/h (1 Bft) 1,00 h 0,00 h 6,3 km/h (2 Bft)
25.03.2011 12:00 17,5 C 15,7 C 2,3 UV-I 7,0 C 50 % 61 % 100 % 1019,7 hPa 0,0 l/m 6,7 km/h (2 Bft) 1,00 h 0,00 h 10,4 km/h (2 Bft)
25.03.2011 13:00 18,6 C 16,4 C 3,3 UV-I 5,3 C 48 % 54 % 100 % 1019,8 hPa 0,0 l/m 11,2 km/h (2 Bft) 1,00 h 0,00 h 14,2 km/h (3 Bft)
25.03.2011 14:00 19,4 C 16,1 C 1,4 UV-I 3,6 C 46 % 53 % 97 % 1019,2 hPa 0,0 l/m 11,0 km/h (2 Bft) 1,00 h 0,00 h 14,0 km/h (3 Bft)
25.03.2011 15:00 19,6 C 15,7 C 0,0 UV-I 2,2 C 45 % 54 % 62 % 1018,5 hPa 0,0 l/m 10,2 km/h (2 Bft) 0,07 h 0,00 h 12,6 km/h (3 Bft)
25.03.2011 16:00 19,9 C 15,7 C 0,0 UV-I 2,4 C 45 % 54 % 68 % 1018,0 hPa 0,0 l/m 8,0 km/h (2 Bft) 0,40 h 0,00 h 10,3 km/h (2 Bft)
25.03.2011 17:00 19,8 C 15,2 C 0,0 UV-I 0,5 C 44 % 55 % 15 % 1017,4 hPa 0,0 l/m 6,3 km/h (2 Bft) 0,00 h 0,00 h 8,0 km/h (2 Bft)
25.03.2011 18:00 19,4 C 14,1 C 0,0 UV-I 0,0 C 45 % 59 % 0 % 1016,7 hPa 0,0 l/m 7,0 km/h (2 Bft) 0,00 h 0,00 h 7,8 km/h (2 Bft)
25.03.2011 19:00 18,8 C 12,3 C 0,0 UV-I 0,0 C 46 % 65 % 0 % 1016,3 hPa 0,0 l/m 5,4 km/h (1 Bft) 0,00 h 0,00 h 5,5 km/h (1 Bft)
25.03.2011 20:00 18,1 C 10,8 C 0,0 UV-I 0,0 C 47 % 69 % 0 % 1016,4 hPa 0,0 l/m 2,5 km/h (1 Bft) 0,00 h 0,00 h 3,4 km/h (1 Bft)
25.03.2011 21:00 17,6 C 9,8 C 0,0 UV-I 0,0 C 48 % 71 % 0 % 1016,7 hPa 0,0 l/m 2,6 km/h (1 Bft) 0,00 h 0,00 h 3,1 km/h (1 Bft)
25.03.2011 22:00 17,3 C 9,5 C 0,0 UV-I 0,0 C 49 % 72 % 0 % 1016,4 hPa 0,0 l/m 5,9 km/h (2 Bft) 0,00 h 0,00 h 7,0 km/h (2 Bft)
25.03.2011 23:00 17,1 C 9,6 C 0,0 UV-I 0,0 C 49 % 74 % 0 % 1016,3 hPa 0,0 l/m 4,0 km/h (1 Bft) 0,00 h 0,00 h 4,9 km/h (1 Bft)
26.03.2011 00:00 17,0 C 9,1 C 0,0 UV-I 0,0 C 50 % 75 % 0 % 1016,4 hPa 0,0 l/m 3,4 km/h (1 Bft) 0,00 h 0,00 h 5,4 km/h (1 Bft)
26.03.2011 01:00 16,9 C 8,5 C 0,0 UV-I 0,0 C 50 % 75 % 0 % 1016,1 hPa 0,0 l/m 4,7 km/h (1 Bft) 0,00 h 0,00 h 6,6 km/h (2 Bft)
26.03.2011 02:00 16,7 C 7,9 C 0,0 UV-I 0,0 C 50 % 75 % 0 % 1016,5 hPa 0,0 l/m 6,5 km/h (2 Bft) 0,00 h 0,00 h 8,2 km/h (2 Bft)
26.03.2011 03:00 16,6 C 7,3 C 0,0 UV-I 0,0 C 49 % 75 % 0 % 1016,1 hPa 0,0 l/m 3,4 km/h (1 Bft) 0,00 h 0,00 h 4,0 km/h (1 Bft)
26.03.2011 04:00 16,3 C 6,1 C 0,0 UV-I 0,0 C 49 % 76 % 0 % 1015,9 hPa 0,0 l/m 0,8 km/h (0 Bft) 0,00 h 0,00 h 1,3 km/h (1 Bft)
26.03.2011 05:00 16,1 C 5,4 C 0,0 UV-I 0,0 C 49 % 79 % 0 % 1016,0 hPa 0,0 l/m 0,2 km/h (0 Bft) 0,00 h 0,00 h 0,5 km/h (0 Bft)
26.03.2011 06:00 15,9 C 4,0 C 0,0 UV-I 0,0 C 49 % 81 % 0 % 1016,3 hPa 0,0 l/m 0,0 km/h (0 Bft) 0,00 h 0,00 h 0,2 km/h (0 Bft)
26.03.2011 07:00 15,8 C 4,2 C 0,0 UV-I 0,0 C 49 % 83 % 0 % 1016,6 hPa 0,0 l/m 0,0 km/h (0 Bft) 0,00 h 0,00 h 0,0 km/h (0 Bft)
26.03.2011 08:00 15,9 C 5,4 C 0,0 UV-I 3,1 C 49 % 83 % 54 % 1016,9 hPa 0,0 l/m 0,3 km/h (0 Bft) 0,43 h 0,00 h 0,8 km/h (0 Bft)
26.03.2011 09:00 16,3 C 7,7 C 0,1 UV-I 6,0 C 49 % 74 % 100 % 1017,1 hPa 0,0 l/m 5,6 km/h (1 Bft) 1,00 h 0,00 h 8,2 km/h (2 Bft)
26.03.2011 10:00 16,5 C 8,9 C 0,1 UV-I 4,4 C 48 % 67 % 95 % 1017,4 hPa 0,0 l/m 6,9 km/h (2 Bft) 0,87 h 0,00 h 9,1 km/h (2 Bft)
26.03.2011 11:00 16,7 C 9,1 C 0,0 UV-I 2,0 C 48 % 67 % 58 % 1017,5 hPa 0,0 l/m 5,9 km/h (2 Bft) 0,00 h 0,00 h 8,8 km/h (2 Bft)
26.03.2011 12:00 16,9 C 9,4 C 0,0 UV-I 2,4 C 47 % 66 % 70 % 1017,4 hPa 0,0 l/m 5,5 km/h (1 Bft) 0,00 h 0,00 h 8,0 km/h (2 Bft)
26.03.2011 13:00 17,0 C 9,5 C 0,0 UV-I 2,2 C 47 % 67 % 63 % 1017,4 hPa 0,0 l/m 5,5 km/h (1 Bft) 0,00 h 0,00 h 7,8 km/h (2 Bft)
26.03.2011 14:00 17,1 C 9,5 C 0,0 UV-I 1,3 C 47 % 68 % 38 % 1017,1 hPa 0,0 l/m 9,3 km/h (2 Bft) 0,00 h 0,00 h 11,9 km/h (2 Bft)
26.03.2011 15:00 17,0 C 9,5 C 0,0 UV-I 1,1 C 47 % 69 % 31 % 1016,6 hPa 0,0 l/m 7,7 km/h (2 Bft) 0,00 h 0,00 h 9,5 km/h (2 Bft)
26.03.2011 16:00 16,9 C 9,2 C 0,0 UV-I 0,7 C 47 % 69 % 20 % 1016,6 hPa 0,0 l/m 7,5 km/h (2 Bft) 0,00 h 0,00 h 8,8 km/h (2 Bft)
26.03.2011 17:00 16,8 C 9,0 C 0,0 UV-I 0,1 C 47 % 70 % 2 % 1016,2 hPa 0,0 l/m 8,3 km/h (2 Bft) 0,00 h 0,00 h 10,0 km/h (2 Bft)
26.03.2011 18:00 16,5 C 8,5 C 0,0 UV-I 0,0 C 48 % 71 % 0 % 1016,3 hPa 0,0 l/m 6,7 km/h (2 Bft) 0,00 h 0,00 h 8,1 km/h (2 Bft)
26.03.2011 19:00 16,2 C 7,9 C 0,0 UV-I 0,0 C 48 % 72 % 0 % 1016,4 hPa 0,0 l/m 8,1 km/h (2 Bft) 0,00 h 0,00 h 8,5 km/h (2 Bft)
26.03.2011 20:00 16,0 C 7,2 C 0,0 UV-I 0,0 C 48 % 75 % 0 % 1016,7 hPa 0,0 l/m 4,9 km/h (1 Bft) 0,00 h 0,00 h 6,2 km/h (2 Bft)
26.03.2011 21:00 15,9 C 6,6 C 0,0 UV-I 0,0 C 49 % 76 % 0 % 1017,0 hPa 0,0 l/m 0,9 km/h (0 Bft) 0,00 h 0,00 h 2,8 km/h (1 Bft)
26.03.2011 22:00 15,7 C 6,3 C 0,0 UV-I 0,0 C 49 % 77 % 0 % 1016,9 hPa 0,0 l/m 0,5 km/h (0 Bft) 0,00 h 0,00 h 1,2 km/h (1 Bft)
26.03.2011 23:00 15,6 C 5,7 C 0,0 UV-I 0,0 C 48 % 78 % 0 % 1016,7 hPa 0,0 l/m 0,0 km/h (0 Bft) 0,00 h 0,00 h 0,0 km/h (0 Bft)
27.03.2011 00:00 15,6 C 5,2 C 0,0 UV-I 0,0 C 48 % 80 % 0 % 1016,3 hPa 0,0 l/m 0,0 km/h (0 Bft) 0,00 h 0,00 h 0,0 km/h (0 Bft)
27.03.2011 01:00 15,4 C 4,7 C 0,0 UV-I 0,0 C 49 % 81 % 0 % 1016,1 hPa 0,0 l/m 0,0 km/h (0 Bft) 0,00 h 0,00 h 0,0 km/h (0 Bft)
27.03.2011 03:00 15,3 C 4,6 C 0,0 UV-I 0,0 C 49 % 82 % 0 % 1015,7 hPa 0,0 l/m 0,0 km/h (0 Bft) 0,00 h 0,00 h 0,0 km/h (0 Bft)
27.03.2011 04:00 15,2 C 4,5 C 0,0 UV-I 0,0 C 49 % 83 % 0 % 1015,2 hPa 0,0 l/m 0,0 km/h (0 Bft) 0,00 h 0,00 h 0,0 km/h (0 Bft)
27.03.2011 05:00 15,1 C 4,5 C 0,0 UV-I 0,0 C 49 % 83 % 0 % 1014,8 hPa 0,0 l/m 0,1 km/h (0 Bft) 0,00 h 0,00 h 0,2 km/h (0 Bft)
27.03.2011 06:00 15,2 C 3,8 C 0,0 UV-I 0,0 C 49 % 84 % 0 % 1014,6 hPa 0,0 l/m 0,0 km/h (0 Bft) 0,00 h 0,00 h 0,0 km/h (0 Bft)
27.03.2011 07:00 15,0 C 3,5 C 0,0 UV-I 0,0 C 49 % 86 % 0 % 1014,4 hPa 0,0 l/m 0,2 km/h (0 Bft) 0,00 h 0,00 h 0,2 km/h (0 Bft)
27.03.2011 08:00 15,0 C 4,2 C 0,0 UV-I 0,0 C 49 % 86 % 0 % 1014,2 hPa 0,0 l/m 0,2 km/h (0 Bft) 0,00 h 0,00 h 0,3 km/h (0 Bft)
27.03.2011 09:00 15,1 C 5,4 C 0,0 UV-I 0,2 C 49 % 84 % 7 % 1014,1 hPa 0,0 l/m 0,6 km/h (0 Bft) 0,00 h 0,00 h 1,0 km/h (0 Bft)
27.03.2011 10:00 15,2 C 7,0 C 0,0 UV-I 1,3 C 49 % 80 % 36 % 1014,1 hPa 0,0 l/m 1,1 km/h (1 Bft) 0,00 h 0,00 h 2,2 km/h (1 Bft)
27.03.2011 11:00 15,5 C 8,8 C 0,6 UV-I 6,5 C 48 % 75 % 99 % 1014,2 hPa 0,0 l/m 2,7 km/h (1 Bft) 0,88 h 0,00 h 5,6 km/h (1 Bft)
27.03.2011 12:00 15,9 C 11,1 C 0,7 UV-I 7,3 C 48 % 66 % 100 % 1014,0 hPa 0,0 l/m 5,5 km/h (1 Bft) 1,00 h 0,00 h 10,1 km/h (2 Bft)
27.03.2011 13:00 16,5 C 13,0 C 3,6 UV-I 6,8 C 48 % 58 % 100 % 1013,7 hPa 0,0 l/m 6,2 km/h (2 Bft) 1,00 h 0,00 h 9,2 km/h (2 Bft)
27.03.2011 14:00 17,5 C 13,9 C 2,8 UV-I 5,9 C 46 % 53 % 100 % 1013,7 hPa 0,0 l/m 4,9 km/h (1 Bft) 1,00 h 0,00 h 7,8 km/h (2 Bft)
27.03.2011 15:00 18,7 C 14,8 C 4,3 UV-I 6,1 C 44 % 50 % 100 % 1013,5 hPa 0,0 l/m 6,8 km/h (2 Bft) 1,00 h 0,00 h 8,7 km/h (2 Bft)
27.03.2011 16:00 19,7 C 15,4 C 2,9 UV-I 5,9 C 42 % 47 % 100 % 1013,4 hPa 0,0 l/m 5,0 km/h (1 Bft) 1,00 h 0,00 h 7,3 km/h (2 Bft)
27.03.2011 17:00 20,3 C 15,5 C 0,8 UV-I 4,5 C 40 % 45 % 100 % 1013,1 hPa 0,0 l/m 6,1 km/h (2 Bft) 1,00 h 0,00 h 8,9 km/h (2 Bft)
27.03.2011 18:00 20,2 C 15,0 C 0,0 UV-I 2,4 C 40 % 45 % 68 % 1012,5 hPa 0,0 l/m 6,1 km/h (2 Bft) 0,90 h 0,00 h 7,0 km/h (2 Bft)
27.03.2011 19:00 19,7 C 13,5 C 0,0 UV-I 0,2 C 41 % 47 % 4 % 1012,2 hPa 0,0 l/m 6,4 km/h (2 Bft) 0,00 h 0,00 h 7,1 km/h (2 Bft)
27.03.2011 20:00 19,0 C 11,3 C 0,0 UV-I 0,0 C 42 % 51 % 0 % 1012,3 hPa 0,0 l/m 3,7 km/h (1 Bft) 0,00 h 0,00 h 5,9 km/h (2 Bft)
27.03.2011 21:00 18,0 C 9,5 C 0,0 UV-I 0,0 C 43 % 57 % 0 % 1012,3 hPa 0,0 l/m 2,0 km/h (1 Bft) 0,00 h 0,00 h 2,9 km/h (1 Bft)
27.03.2011 22:00 17,4 C 7,6 C 0,0 UV-I 0,0 C 44 % 62 % 0 % 1012,4 hPa 0,0 l/m 0,2 km/h (0 Bft) 0,00 h 0,00 h 0,1 km/h (0 Bft)
27.03.2011 23:00 16,9 C 5,7 C 0,0 UV-I 0,0 C 44 % 68 % 0 % 1012,6 hPa 0,0 l/m 0,0 km/h (0 Bft) 0,00 h 0,00 h 0,0 km/h (0 Bft)
Min-Datum _ 21.03.11 21.03.11 21.03.11 21.03.11 21.03.11 21.03.11 21.03.11 27.03.11 - 21.03.11 - - 21.03.11
_ Min-Zeit 06:14 05:16 00:00 00:00 15:04 14:34 00:00 19:16 - 00:00 - - 00:00
Minimum _ 13,1 C -1,2 C 0,0 UV-I 0,0 C 34 % 31 % 0 % 1012,2 hPa - 0,0 km/h (0 Bft) - - 0,0 km/h (0 Bft)
Max-Datum _ 24.03.11 24.03.11 24.03.11 24.03.11 24.03.11 25.03.11 21.03.11 23.03.11 21.03.11 23.03.11 21.03.11 21.03.11 25.03.11
_ Max-Zeit 16:02 15:46 13:40 09:52 08:52 08:24 07:56 13:26 00:00 17:14 07:48 00:00 13:24
Maximum _ 21,8 C 18,9 C 6,9 UV-I 9,7 C 53 % 93 % 100 % 1043,8 hPa 0,0 l/m 15,7 km/h
S (3 Bft)
0,03 h 0,00 h 30,3 km/h
SW (5 Bft)
Durchschnitt _ 16,6 C 8,7 C 0,5 UV-I 2,2 C 46 % 71 % 36 % 1028,9 hPa #0,0 l/m 2,9 km/h (1 Bft) #55:35 h #0 min. 3,7 km/h (1 Bft)
© 2012 W. Hausmann